createdAt,value
2023-04-30T00:01:30.902Z,5.13
2023-04-30T00:03:59.492Z,4.40
2023-04-30T00:06:28.608Z,4.57
2023-04-30T00:08:57.229Z,4.70
2023-04-30T00:11:28.775Z,4.60
2023-04-30T00:16:25.877Z,5.28
2023-04-30T00:18:54.591Z,3.60
2023-04-30T00:21:22.856Z,4.53
2023-04-30T00:23:52.030Z,4.10
2023-04-30T00:26:20.528Z,4.33
2023-04-30T00:28:49.182Z,4.67
2023-04-30T00:31:17.358Z,4.47
2023-04-30T00:33:46.214Z,4.85
2023-04-30T00:36:14.387Z,4.40
2023-04-30T00:38:42.881Z,5.07
2023-04-30T00:41:11.275Z,4.70
2023-04-30T00:43:39.775Z,4.37
2023-04-30T00:46:08.404Z,4.73
2023-04-30T00:48:37.166Z,4.70
2023-04-30T00:51:06.153Z,4.40
2023-04-30T00:53:35.484Z,4.03
2023-04-30T00:56:06.116Z,4.55
2023-04-30T00:58:34.382Z,5.00
2023-04-30T01:01:04.372Z,4.43
2023-04-30T01:03:33.071Z,4.50
2023-04-30T01:06:01.836Z,4.83
2023-04-30T01:08:31.866Z,5.40
2023-04-30T01:11:07.867Z,4.87
2023-04-30T01:13:37.973Z,4.57
2023-04-30T01:16:08.330Z,4.10
2023-04-30T01:18:38.286Z,3.97
2023-04-30T01:21:08.421Z,4.55
2023-04-30T01:23:57.381Z,4.00
2023-04-30T01:26:45.974Z,3.63
2023-04-30T01:29:16.174Z,5.07
2023-04-30T01:31:45.288Z,4.30
2023-04-30T01:34:13.973Z,4.17
2023-04-30T01:37:01.203Z,3.90
2023-04-30T01:39:46.316Z,4.07
2023-04-30T01:42:16.282Z,3.80
2023-04-30T01:45:03.367Z,4.62
2023-04-30T01:47:33.761Z,4.58
2023-04-30T01:50:12.912Z,3.67
2023-04-30T01:52:48.190Z,3.87
2023-04-30T01:55:18.254Z,4.03
2023-04-30T01:57:48.271Z,4.00
2023-04-30T02:00:17.830Z,4.33
2023-04-30T02:02:46.415Z,4.10
2023-04-30T02:05:15.003Z,4.27
2023-04-30T02:07:45.069Z,5.20
2023-04-30T02:10:13.707Z,4.47
2023-04-30T02:12:42.638Z,5.37
2023-04-30T02:15:11.437Z,4.83
2023-04-30T02:17:41.462Z,3.20
2023-04-30T02:20:10.178Z,4.00
2023-04-30T02:22:39.064Z,3.95
2023-04-30T02:25:07.812Z,4.60
2023-04-30T02:27:36.324Z,4.07
2023-04-30T02:30:06.171Z,4.17
2023-04-30T02:32:35.137Z,4.65
2023-04-30T02:35:04.771Z,4.45
2023-04-30T02:37:33.520Z,3.70
2023-04-30T02:40:02.016Z,4.60
2023-04-30T02:42:31.350Z,4.53
2023-04-30T02:44:59.959Z,4.10
2023-04-30T02:47:28.893Z,4.92
2023-04-30T02:49:57.499Z,4.07
2023-04-30T02:52:26.747Z,5.27
2023-04-30T02:54:55.315Z,4.30
2023-04-30T02:57:24.015Z,5.00
2023-04-30T02:59:53.164Z,4.15
2023-04-30T03:02:23.454Z,4.50
2023-04-30T03:04:51.888Z,5.20
2023-04-30T03:07:20.436Z,4.13
2023-04-30T03:09:48.929Z,3.60
2023-04-30T03:12:17.199Z,4.30
2023-04-30T03:14:45.700Z,4.10
2023-04-30T03:17:14.499Z,4.23
2023-04-30T03:19:43.083Z,3.77
2023-04-30T03:22:11.872Z,3.90
2023-04-30T03:24:41.009Z,3.55
2023-04-30T03:27:09.621Z,4.57
2023-04-30T03:29:38.460Z,3.83
2023-04-30T03:32:06.947Z,4.33
2023-04-30T03:34:35.914Z,4.67
2023-04-30T03:37:04.924Z,3.58
2023-04-30T03:39:33.789Z,3.87
2023-04-30T03:42:03.495Z,4.62
2023-04-30T03:44:32.037Z,4.60
2023-04-30T03:47:00.696Z,4.20
2023-04-30T03:49:29.112Z,3.93
2023-04-30T03:51:57.780Z,4.63
2023-04-30T03:54:26.455Z,4.00
2023-04-30T03:56:55.094Z,3.60
2023-04-30T03:59:24.145Z,4.40
2023-04-30T04:01:53.438Z,3.93
2023-04-30T04:04:22.366Z,4.07
2023-04-30T04:06:50.906Z,4.10
2023-04-30T04:09:19.866Z,4.12
2023-04-30T04:11:48.871Z,3.57
2023-04-30T04:14:17.906Z,3.80
2023-04-30T04:16:46.676Z,3.30
2023-04-30T04:19:14.966Z,3.97
2023-04-30T04:21:44.471Z,3.40
2023-04-30T04:24:14.420Z,3.40
2023-04-30T04:26:43.058Z,4.13
2023-04-30T04:29:12.128Z,3.33
2023-04-30T04:31:42.609Z,3.43
2023-04-30T04:34:11.852Z,3.43
2023-04-30T04:36:40.402Z,2.60
2023-04-30T04:39:08.792Z,2.80
2023-04-30T04:41:37.337Z,3.40
2023-04-30T04:44:06.840Z,3.27
2023-04-30T04:46:37.533Z,3.23
2023-04-30T04:49:06.368Z,3.37
2023-04-30T04:51:35.345Z,3.45
2023-04-30T04:54:04.954Z,3.00
2023-04-30T04:56:33.897Z,2.50
2023-04-30T04:59:02.453Z,2.93
2023-04-30T05:01:30.985Z,2.90
2023-04-30T05:03:59.764Z,2.13
2023-04-30T05:06:28.571Z,3.20
2023-04-30T05:08:57.091Z,3.10
2023-04-30T05:11:25.841Z,3.27
2023-04-30T05:13:54.420Z,3.27
2023-04-30T05:16:22.862Z,3.53
2023-04-30T05:18:52.128Z,2.67
2023-04-30T05:21:20.618Z,3.13
2023-04-30T05:23:49.111Z,2.60
2023-04-30T05:26:17.366Z,2.57
2023-04-30T05:28:47.738Z,3.10
2023-04-30T05:31:16.622Z,3.65
2023-04-30T05:33:45.725Z,2.57
2023-04-30T05:36:14.550Z,2.67
2023-04-30T05:38:43.193Z,3.07
2023-04-30T05:41:14.397Z,2.90
2023-04-30T05:43:42.936Z,2.83
2023-04-30T05:46:11.196Z,1.97
2023-04-30T05:48:40.008Z,3.30
2023-04-30T05:51:08.443Z,2.57
2023-04-30T05:53:37.110Z,2.83
2023-04-30T05:56:05.625Z,3.00
2023-04-30T05:58:34.591Z,3.27
2023-04-30T06:01:03.526Z,1.95
2023-04-30T06:03:34.833Z,2.60
2023-04-30T06:06:03.524Z,2.20
2023-04-30T06:08:32.025Z,3.30
2023-04-30T06:11:00.888Z,2.00
2023-04-30T06:13:29.405Z,2.70
2023-04-30T06:15:57.886Z,2.30
2023-04-30T06:18:26.380Z,2.47
2023-04-30T06:20:54.841Z,2.90
2023-04-30T06:23:23.499Z,2.87
2023-04-30T06:25:51.969Z,2.47
2023-04-30T06:28:20.468Z,2.47
2023-04-30T06:30:48.995Z,2.57
2023-04-30T06:33:17.325Z,2.00
2023-04-30T06:35:45.822Z,2.83
2023-04-30T06:38:14.650Z,2.70
2023-04-30T06:40:43.126Z,2.17
2023-04-30T06:43:12.017Z,2.10
2023-04-30T06:45:40.828Z,2.00
2023-04-30T06:48:09.285Z,2.57
2023-04-30T06:50:39.488Z,1.77
2023-04-30T06:53:07.837Z,1.60
2023-04-30T06:55:36.325Z,2.10
2023-04-30T06:58:05.812Z,2.20
2023-04-30T07:00:34.767Z,1.73
2023-04-30T07:03:04.551Z,1.90
2023-04-30T07:05:33.328Z,2.30
2023-04-30T07:08:03.232Z,2.50
2023-04-30T07:10:31.822Z,2.17
2023-04-30T07:13:00.449Z,2.97
2023-04-30T07:15:28.990Z,1.90
2023-04-30T07:17:57.791Z,2.63
2023-04-30T07:20:26.661Z,1.60
2023-04-30T07:22:55.547Z,2.17
2023-04-30T07:25:23.746Z,2.23
2023-04-30T07:27:54.239Z,1.50
2023-04-30T07:30:24.420Z,1.53
2023-04-30T07:32:52.363Z,2.53
2023-04-30T07:35:20.833Z,1.83
2023-04-30T07:37:49.617Z,1.97
2023-04-30T07:40:25.415Z,1.30
2023-04-30T07:42:48.216Z,2.03
2023-04-30T07:45:16.774Z,1.47
2023-04-30T07:47:45.859Z,1.50
2023-04-30T07:50:14.900Z,1.43
2023-04-30T07:52:43.376Z,1.60
2023-04-30T07:55:13.709Z,1.60
2023-04-30T07:57:42.467Z,1.20
2023-04-30T08:00:11.085Z,1.13
2023-04-30T08:02:44.416Z,1.73
2023-04-30T08:05:12.774Z,1.77
2023-04-30T08:07:41.533Z,1.17
2023-04-30T08:10:09.803Z,1.07
2023-04-30T08:12:38.353Z,1.40
2023-04-30T08:15:08.972Z,1.03
2023-04-30T08:17:37.400Z,1.53
2023-04-30T08:20:06.696Z,1.13
2023-04-30T08:22:35.201Z,1.40
2023-04-30T08:25:03.721Z,1.20
2023-04-30T08:27:32.459Z,1.33
2023-04-30T08:30:00.971Z,1.03
2023-04-30T08:32:29.791Z,2.07
2023-04-30T08:34:58.493Z,1.63
2023-04-30T08:37:27.000Z,1.00
2023-04-30T08:39:55.672Z,1.00
2023-04-30T08:42:31.738Z,1.62
2023-04-30T08:45:01.459Z,2.20
2023-04-30T08:47:30.237Z,1.63
2023-04-30T08:49:58.681Z,1.13
2023-04-30T08:52:27.309Z,1.13
2023-04-30T08:54:57.421Z,1.33
2023-04-30T08:57:26.424Z,0.80
2023-04-30T08:59:55.557Z,1.13
2023-04-30T09:02:24.525Z,1.60
2023-04-30T09:04:53.471Z,1.10
2023-04-30T09:07:25.347Z,2.07
2023-04-30T09:09:54.391Z,1.70
2023-04-30T09:12:23.293Z,1.33
2023-04-30T09:15:08.962Z,1.60
2023-04-30T09:17:37.831Z,1.25
2023-04-30T09:20:12.885Z,2.10
2023-04-30T09:22:42.336Z,1.17
2023-04-30T09:25:11.448Z,1.33
2023-04-30T09:27:40.168Z,1.37
2023-04-30T09:30:09.131Z,1.83
2023-04-30T09:32:39.468Z,0.68
2023-04-30T09:35:07.806Z,0.50
2023-04-30T09:37:37.909Z,1.10
2023-04-30T09:40:06.526Z,3.30
2023-04-30T09:42:35.454Z,1.10
2023-04-30T09:45:05.899Z,2.50
2023-04-30T09:47:35.015Z,2.13
2023-04-30T09:50:03.710Z,0.80
2023-04-30T09:52:32.210Z,0.43
2023-04-30T09:55:00.944Z,0.60
2023-04-30T09:57:32.287Z,0.72
2023-04-30T10:00:01.901Z,0.50
2023-04-30T10:02:32.429Z,0.47
2023-04-30T10:05:01.561Z,1.13
2023-04-30T10:07:31.839Z,0.93
2023-04-30T10:10:01.736Z,2.00
2023-04-30T10:12:35.284Z,1.20
2023-04-30T10:15:05.405Z,1.20
2023-04-30T10:17:36.552Z,0.93
2023-04-30T10:20:07.260Z,1.92
2023-04-30T10:22:36.219Z,0.83
2023-04-30T10:25:05.055Z,1.23
2023-04-30T10:27:34.048Z,0.50
2023-04-30T10:30:03.259Z,0.60
2023-04-30T10:32:33.528Z,0.93
2023-04-30T10:35:09.385Z,0.97
2023-04-30T10:37:39.489Z,1.03
2023-04-30T10:40:10.027Z,0.67
2023-04-30T10:42:38.580Z,1.75
2023-04-30T10:45:08.748Z,1.13
2023-04-30T10:47:38.841Z,2.50
2023-04-30T10:50:10.712Z,0.80
2023-04-30T10:52:39.702Z,1.23
2023-04-30T10:55:08.971Z,0.57
2023-04-30T10:57:45.680Z,1.07
2023-04-30T11:00:16.231Z,1.50
2023-04-30T11:02:47.097Z,0.60
2023-04-30T11:05:18.251Z,0.57
2023-04-30T11:07:51.476Z,1.07
2023-04-30T11:10:23.898Z,1.03
2023-04-30T11:12:53.253Z,0.97
2023-04-30T11:15:22.821Z,1.37
2023-04-30T11:17:52.050Z,1.00
2023-04-30T11:20:22.005Z,0.93
2023-04-30T11:22:52.201Z,0.87
2023-04-30T11:25:20.908Z,0.47
2023-04-30T11:27:50.123Z,1.47
2023-04-30T11:30:19.237Z,0.80
2023-04-30T11:32:48.525Z,0.50
2023-04-30T11:35:19.381Z,1.40
2023-04-30T11:37:48.714Z,0.50
2023-04-30T11:40:17.013Z,1.57
2023-04-30T11:42:46.799Z,0.70
2023-04-30T11:45:20.834Z,1.07
2023-04-30T11:47:51.366Z,1.33
2023-04-30T11:50:22.385Z,0.73
2023-04-30T11:52:51.339Z,0.90
2023-04-30T11:55:20.400Z,0.60
2023-04-30T11:57:56.482Z,3.27
2023-04-30T12:00:28.845Z,0.60
2023-04-30T12:02:58.311Z,1.03
2023-04-30T12:05:28.071Z,0.63
2023-04-30T12:07:57.894Z,0.47
2023-04-30T12:10:26.386Z,1.10
2023-04-30T12:12:55.274Z,0.40
2023-04-30T12:15:27.137Z,0.77
2023-04-30T12:17:57.359Z,1.20
2023-04-30T12:20:27.953Z,0.87
2023-04-30T12:22:56.289Z,0.53
2023-04-30T12:25:25.076Z,0.73
2023-04-30T12:27:53.944Z,1.17
2023-04-30T12:30:27.893Z,0.50
2023-04-30T12:32:58.494Z,1.30
2023-04-30T12:35:28.698Z,1.80
2023-04-30T12:38:04.903Z,1.63
2023-04-30T12:40:33.618Z,1.37
2023-04-30T12:43:03.094Z,0.83
2023-04-30T12:45:52.362Z,0.80
2023-04-30T12:48:21.879Z,0.77
2023-04-30T12:50:57.937Z,2.07
2023-04-30T12:53:26.416Z,0.90
2023-04-30T12:56:14.494Z,1.57
2023-04-30T12:58:46.131Z,0.70
2023-04-30T13:01:16.173Z,0.80
2023-04-30T13:03:44.434Z,0.77
2023-04-30T13:06:12.925Z,0.77
2023-04-30T13:08:57.077Z,0.53
2023-04-30T13:11:11.598Z,0.53
2023-04-30T13:13:40.209Z,0.73
2023-04-30T13:16:08.693Z,0.77
2023-04-30T13:18:37.278Z,1.63
2023-04-30T13:21:05.786Z,0.40
2023-04-30T13:23:44.514Z,1.10
2023-04-30T13:26:05.483Z,0.80
2023-04-30T13:28:34.008Z,2.00
2023-04-30T13:31:02.662Z,0.70
2023-04-30T13:33:31.224Z,0.70
2023-04-30T13:35:59.793Z,0.23
2023-04-30T13:38:28.912Z,0.63
2023-04-30T13:40:57.410Z,1.33
2023-04-30T13:43:25.877Z,0.40
2023-04-30T13:45:56.059Z,0.60
2023-04-30T13:48:24.550Z,1.17
2023-04-30T13:50:53.295Z,1.20
2023-04-30T13:53:23.346Z,0.90
2023-04-30T13:55:51.857Z,0.57
2023-04-30T13:58:20.558Z,0.70
2023-04-30T14:00:49.390Z,1.17
2023-04-30T14:03:19.271Z,1.23
2023-04-30T14:05:48.208Z,0.80
2023-04-30T14:08:16.705Z,0.47
2023-04-30T14:10:45.212Z,0.60
2023-04-30T14:13:13.665Z,0.90
2023-04-30T14:15:42.824Z,0.87
2023-04-30T14:18:12.165Z,1.30
2023-04-30T14:20:41.506Z,1.63
2023-04-30T14:23:09.775Z,0.90
2023-04-30T14:25:38.351Z,2.20
2023-04-30T14:28:06.897Z,1.20
2023-04-30T14:30:35.379Z,0.50
2023-04-30T14:33:04.417Z,0.40
2023-04-30T14:35:33.512Z,0.60
2023-04-30T14:38:02.053Z,0.70
2023-04-30T14:40:30.757Z,0.43
2023-04-30T14:42:59.619Z,0.60
2023-04-30T14:45:29.037Z,1.03
2023-04-30T14:47:57.531Z,1.47
2023-04-30T14:50:26.183Z,0.90
2023-04-30T14:52:54.701Z,1.47
2023-04-30T14:55:23.414Z,0.50
2023-04-30T14:57:51.929Z,0.50
2023-04-30T15:00:20.360Z,0.23
2023-04-30T15:02:48.983Z,1.60
2023-04-30T15:05:17.448Z,0.87
2023-04-30T15:07:46.018Z,0.37
2023-04-30T15:10:14.504Z,0.70
2023-04-30T15:12:43.375Z,1.00
2023-04-30T15:15:12.100Z,0.93
2023-04-30T15:17:41.108Z,0.53
2023-04-30T15:20:09.479Z,0.50
2023-04-30T15:22:38.117Z,0.50
2023-04-30T15:25:06.877Z,0.60
2023-04-30T15:27:36.663Z,0.77
2023-04-30T15:30:06.301Z,1.00
2023-04-30T15:32:34.834Z,0.63
2023-04-30T15:35:03.718Z,1.60
2023-04-30T15:37:34.319Z,1.20
2023-04-30T15:40:02.795Z,1.30
2023-04-30T15:42:31.533Z,2.20
2023-04-30T15:45:00.136Z,0.90
2023-04-30T15:47:28.625Z,1.73
2023-04-30T15:49:57.302Z,0.30
2023-04-30T15:52:25.859Z,1.83
2023-04-30T15:54:54.474Z,1.10
2023-04-30T15:57:22.933Z,1.13
2023-04-30T15:59:51.495Z,0.50
2023-04-30T16:02:20.715Z,0.83
2023-04-30T16:04:49.241Z,1.10
2023-04-30T16:07:17.728Z,0.67
2023-04-30T16:09:47.894Z,1.23
2023-04-30T16:12:16.411Z,0.60
2023-04-30T16:14:44.910Z,0.80
2023-04-30T16:17:13.330Z,1.17
2023-04-30T16:19:41.974Z,0.90
2023-04-30T16:22:10.501Z,0.60
2023-04-30T16:24:39.293Z,1.10
2023-04-30T16:27:08.252Z,2.10
2023-04-30T16:29:36.744Z,0.83
2023-04-30T16:32:05.648Z,0.57
2023-04-30T16:34:34.191Z,0.67
2023-04-30T16:37:03.434Z,0.62
2023-04-30T16:39:31.936Z,0.47
2023-04-30T16:42:02.012Z,1.03
2023-04-30T16:44:30.785Z,0.90
2023-04-30T16:46:59.759Z,0.65
2023-04-30T16:49:28.336Z,0.97
2023-04-30T16:51:56.817Z,0.40
2023-04-30T16:54:25.395Z,1.17
2023-04-30T16:56:53.881Z,1.33
2023-04-30T16:59:24.014Z,0.72
2023-04-30T17:01:54.007Z,0.47
2023-04-30T17:04:22.309Z,0.72
2023-04-30T17:06:51.298Z,0.88
2023-04-30T17:09:19.857Z,0.53
2023-04-30T17:11:48.322Z,0.40
2023-04-30T17:14:16.862Z,0.47
2023-04-30T17:16:46.298Z,0.93
2023-04-30T17:19:14.781Z,0.88
2023-04-30T17:21:43.246Z,0.60
2023-04-30T17:24:12.787Z,0.50
2023-04-30T17:26:41.705Z,1.15
2023-04-30T17:29:10.274Z,1.17
2023-04-30T17:31:38.820Z,0.60
2023-04-30T17:34:07.026Z,1.20
2023-04-30T17:36:35.566Z,0.70
2023-04-30T17:39:05.735Z,0.70
2023-04-30T17:41:34.797Z,0.90
2023-04-30T17:44:03.568Z,1.55
2023-04-30T17:46:32.120Z,1.53
2023-04-30T17:49:04.138Z,0.80
2023-04-30T17:51:32.754Z,0.80
2023-04-30T17:54:01.314Z,2.80
2023-04-30T17:56:31.127Z,2.03
2023-04-30T17:58:59.943Z,2.10
2023-04-30T18:01:28.531Z,2.27
2023-04-30T18:03:58.754Z,2.23
2023-04-30T18:09:10.620Z,1.93
2023-04-30T18:11:39.100Z,1.67
2023-04-30T18:14:07.539Z,1.87
2023-04-30T18:16:36.437Z,1.77
2023-04-30T18:19:05.203Z,1.20
2023-04-30T18:21:33.789Z,1.70
2023-04-30T18:24:02.613Z,1.63
2023-04-30T18:26:31.122Z,1.73
2023-04-30T18:28:59.917Z,2.02
2023-04-30T18:31:28.618Z,1.83
2023-04-30T18:33:57.244Z,2.33
2023-04-30T18:36:25.734Z,1.30
2023-04-30T18:38:54.396Z,2.50
2023-04-30T18:41:23.320Z,1.40
2023-04-30T18:43:51.813Z,1.67
2023-04-30T18:46:20.605Z,1.03
2023-04-30T18:48:49.663Z,2.37
2023-04-30T18:51:18.338Z,0.87
2023-04-30T18:53:47.563Z,1.40
2023-04-30T18:56:16.018Z,0.73
2023-04-30T18:58:45.461Z,2.00
2023-04-30T19:01:14.060Z,0.63
2023-04-30T19:03:42.684Z,1.13
2023-04-30T19:06:11.152Z,0.93
2023-04-30T19:08:39.703Z,1.30
2023-04-30T19:11:08.838Z,1.43
2023-04-30T19:13:37.609Z,0.82
2023-04-30T19:16:05.855Z,0.83
2023-04-30T19:18:34.969Z,1.43
2023-04-30T19:21:05.628Z,1.55
2023-04-30T19:23:35.438Z,1.90
2023-04-30T19:26:04.010Z,0.80
2023-04-30T19:28:32.486Z,0.80
2023-04-30T19:31:01.146Z,0.97
2023-04-30T19:33:31.566Z,1.50
2023-04-30T19:36:00.767Z,0.73
2023-04-30T19:38:29.247Z,1.13
2023-04-30T19:40:58.040Z,0.70
2023-04-30T19:43:26.628Z,1.17
2023-04-30T19:45:59.241Z,0.72
2023-04-30T19:48:27.734Z,1.37
2023-04-30T19:50:57.876Z,0.90
2023-04-30T19:53:26.163Z,0.97
2023-04-30T19:55:54.716Z,1.00
2023-04-30T19:58:23.085Z,1.43
2023-04-30T20:00:51.588Z,0.50
2023-04-30T20:03:20.573Z,0.80
2023-04-30T20:05:49.194Z,0.87
2023-04-30T20:08:17.930Z,1.40
2023-04-30T20:10:47.809Z,1.47
2023-04-30T20:13:17.139Z,2.07
2023-04-30T20:15:45.893Z,1.07
2023-04-30T20:18:14.475Z,1.00
2023-04-30T20:20:43.465Z,1.57
2023-04-30T20:23:14.414Z,0.77
2023-04-30T20:25:44.850Z,1.13
2023-04-30T20:28:16.460Z,0.70
2023-04-30T20:30:47.196Z,2.37
2023-04-30T20:33:15.638Z,1.40
2023-04-30T20:35:47.630Z,1.23
2023-04-30T20:38:18.890Z,1.20
2023-04-30T20:40:47.102Z,1.80
2023-04-30T20:43:15.500Z,1.57
2023-04-30T20:45:47.548Z,1.87
2023-04-30T20:48:16.987Z,2.00
2023-04-30T20:50:46.067Z,1.87
2023-04-30T20:53:15.014Z,2.37
2023-04-30T20:55:43.646Z,2.40
2023-04-30T20:58:12.142Z,2.80
2023-04-30T21:00:40.849Z,3.70
2023-04-30T21:03:09.558Z,2.57
2023-04-30T21:05:40.282Z,3.98
2023-04-30T21:08:08.966Z,4.40
2023-04-30T21:10:37.508Z,5.07
2023-04-30T21:13:06.529Z,4.20
2023-04-30T21:15:35.893Z,3.80
2023-04-30T21:18:05.431Z,4.53
2023-04-30T21:20:34.544Z,4.47
2023-04-30T21:23:03.180Z,3.80
2023-04-30T21:25:32.024Z,3.20
2023-04-30T21:28:01.161Z,2.98
2023-04-30T21:30:30.072Z,2.83
2023-04-30T21:32:59.296Z,2.47
2023-04-30T21:35:29.647Z,3.07
2023-04-30T21:37:58.453Z,2.40
2023-04-30T21:40:27.005Z,1.77
2023-04-30T21:42:55.801Z,2.30
2023-04-30T21:45:24.371Z,3.23
2023-04-30T21:47:53.465Z,3.37
2023-04-30T21:50:23.609Z,4.43
2023-04-30T21:52:52.130Z,3.93
2023-04-30T21:55:20.822Z,2.97
2023-04-30T21:57:50.884Z,4.37
2023-04-30T22:00:19.471Z,3.57
2023-04-30T22:02:51.122Z,3.43
2023-04-30T22:05:20.861Z,3.07
2023-04-30T22:07:49.380Z,3.00
2023-04-30T22:10:17.683Z,3.33
2023-04-30T22:12:47.982Z,2.63
2023-04-30T22:15:16.126Z,3.63
2023-04-30T22:17:46.009Z,3.43
2023-04-30T22:20:14.435Z,3.67
2023-04-30T22:22:42.910Z,2.80
2023-04-30T22:25:11.233Z,2.93
2023-04-30T22:27:39.715Z,2.63
2023-04-30T22:30:08.360Z,2.50
2023-04-30T22:32:36.937Z,2.73
2023-04-30T22:35:06.665Z,3.80
2023-04-30T22:37:36.788Z,2.57
2023-04-30T22:40:05.471Z,1.70
2023-04-30T22:42:34.129Z,2.50
2023-04-30T22:45:02.797Z,2.17
2023-04-30T22:47:31.937Z,2.13
2023-04-30T22:50:00.579Z,3.03
2023-04-30T22:52:29.716Z,1.85
2023-04-30T22:54:58.471Z,1.63
2023-04-30T22:57:27.087Z,2.17
2023-04-30T22:59:55.660Z,2.27
2023-04-30T23:02:26.039Z,3.03
2023-04-30T23:04:54.577Z,2.53
2023-04-30T23:07:23.122Z,1.35
2023-04-30T23:09:52.109Z,1.97
2023-04-30T23:12:20.685Z,2.53
2023-04-30T23:14:50.025Z,2.40
2023-04-30T23:17:18.526Z,1.80
2023-04-30T23:19:47.274Z,2.58
2023-04-30T23:22:16.828Z,1.83
2023-04-30T23:24:45.610Z,1.60
2023-04-30T23:27:13.799Z,1.50
2023-04-30T23:29:42.879Z,1.97
2023-04-30T23:32:11.137Z,2.87
2023-04-30T23:34:39.615Z,2.00
2023-04-30T23:37:08.090Z,2.03
2023-04-30T23:39:36.748Z,1.97
2023-04-30T23:42:07.326Z,2.27
2023-04-30T23:44:35.933Z,1.83
2023-04-30T23:47:06.449Z,2.35
2023-04-30T23:49:34.923Z,2.37
2023-04-30T23:52:03.733Z,2.65
2023-04-30T23:54:32.868Z,2.58
2023-04-30T23:57:01.691Z,2.63
2023-04-30T23:59:30.198Z,2.77
